| time (UTC) | temp F | wind direction | speed MPH | gust MPH | rain 1hr in | rain 24hr in | rain mn in | humidity % | barometer mb |
| 20260507154538 | 61 | 269 | 0.0 | 0.0 | 0.01 | 1.19 | 1.19 | 1 | 1000.1 |
| 20260507153035 | 61 | 276 | 0.0 | 0.0 | 0.01 | 1.19 | 1.19 | 1 | 1000.2 |
| 20260507151530 | 61 | 252 | 0.0 | 0.0 | 0.00 | 1.18 | 1.18 | 1 | 1000.0 |
| 20260507150025 | 61 | 257 | 0.0 | 0.0 | 0.00 | 1.18 | 1.18 | 1 | 1000.3 |
| 20260507144521 | 62 | 277 | 0.0 | 0.0 | 0.00 | 1.18 | 1.18 | 1 | 1000.3 |
| 20260507143017 | 62 | 311 | 0.0 | 0.0 | 0.00 | 1.18 | 1.18 | 1 | 1000.5 |
| 20260507141512 | 62 | 333 | 0.0 | 0.0 | 0.02 | 1.18 | 1.18 | 1 | 1000.3 |
| 20260507140013 | 62 | 319 | 0.0 | 0.0 | 0.03 | 1.20 | 1.18 | 1 | 999.2 |
| 20260507134503 | 62 | 321 | 0.0 | 0.0 | 0.09 | 1.20 | 1.18 | 1 | 1000.5 |
| 20260507133101 | 61 | 317 | 0.0 | 0.0 | 0.09 | 1.20 | 1.18 | 1 | 1000.5 |
| 20260507131557 | 61 | 315 | 0.0 | 0.0 | 0.10 | 1.17 | 1.15 | 1 | 1000.2 |
| 20260507130049 | 61 | 289 | 0.0 | 0.0 | 0.11 | 1.17 | 1.14 | 1 | 1001.2 |
| 20260507130019 | 61 | 290 | 0.0 | 0.0 | 0.11 | 1.43 | 1.14 | 1 | 1001.4 |
| 20260507124545 | 61 | 301 | 0.0 | 0.0 | 0.06 | 1.38 | 1.09 | 1 | 1001.6 |
| 20260507123040 | 61 | 324 | 0.0 | 0.0 | 0.05 | 1.35 | 1.07 | 1 | 1001.1 |
| 20260507121535 | 61 | 302 | 0.0 | 0.0 | 0.03 | 1.34 | 1.06 | 1 | 1000.7 |
| 20260507120032 | 61 | 99 | 0.0 | 0.0 | 0.02 | 1.32 | 1.04 | 1 | 999.7 |
| 20260507114527 | 61 | 293 | 0.0 | 0.0 | 0.01 | 1.31 | 1.03 | 1 | 999.5 |
| 20260507113024 | 61 | 323 | 0.0 | 0.0 | 0.00 | 1.31 | 1.02 | 1 | 999.0 |
| 20260507111519 | 61 | 5 | 0.0 | 0.0 | 0.02 | 1.31 | 1.02 | 1 | 997.9 |
| 20260507110016 | 61 | 296 | 0.0 | 0.0 | 0.02 | 1.31 | 1.02 | 1 | 997.9 |
| 20260507104509 | 61 | 68 | 0.0 | 0.0 | 0.03 | 1.31 | 1.02 | 1 | 997.2 |
| 20260507103008 | 61 | 98 | 0.0 | 0.0 | 0.06 | 1.31 | 1.02 | 1 | 996.9 |
| 20260507101507 | 61 | 67 | 0.0 | 0.0 | 0.04 | 1.29 | 1.01 | 1 | 997.7 |
| 20260507094600 | 62 | 123 | 0.0 | 0.0 | 0.04 | 1.28 | 1.00 | 1 | 997.3 |
| 20260507093049 | 62 | 98 | 0.0 | 0.0 | 0.02 | 1.25 | 0.97 | 1 | 998.3 |
| 20260507091558 | 62 | 124 | 0.0 | 0.0 | 0.02 | 1.25 | 0.97 | 1 | 997.7 |
| 20260507090058 | 62 | 101 | 0.0 | 0.0 | 0.03 | 1.25 | 0.97 | 1 | 997.9 |
| 20260507084536 | 62 | 144 | 0.0 | 0.0 | 0.01 | 1.23 | 0.94 | 1 | 998.3 |
| 20260507083032 | 62 | 65 | 0.0 | 0.0 | 0.01 | 1.23 | 0.94 | 1 | 998.8 |
| 20260507081538 | 62 | 110 | 0.0 | 0.0 | 0.02 | 1.23 | 0.94 | 1 | 998.1 |
| 20260507080022 | 62 | 129 | 0.0 | 0.0 | 0.06 | 1.22 | 0.94 | 1 | 998.8 |
| 20260507074519 | 62 | 89 | 0.0 | 0.0 | 0.13 | 1.22 | 0.94 | 1 | 1000.0 |
| 20260507073014 | 63 | 79 | 0.0 | 0.0 | 0.46 | 1.22 | 0.94 | 1 | 1001.4 |
| 20260507071509 | 63 | 162 | 0.0 | 0.0 | 0.84 | 1.21 | 0.93 | 1 | 1002.0 |
| 20260507070009 | 63 | 217 | 0.0 | 0.0 | 0.86 | 1.17 | 0.88 | 1 | 1001.5 |
| 20260507064603 | 63 | 229 | 0.0 | 0.0 | 0.81 | 1.09 | 0.81 | 1 | 1001.3 |
| 20260507063101 | 63 | 263 | 0.0 | 0.0 | 0.47 | 0.76 | 0.47 | 1 | 1002.2 |
| 20260507061551 | 64 | 231 | 0.0 | 0.0 | 0.09 | 0.38 | 0.09 | 1 | 1001.0 |
| 20260507060046 | 71 | 255 | 0.0 | 0.0 | 0.02 | 0.31 | 0.02 | 54 | 1001.6 |
| 20260507054548 | 75 | 311 | 0.0 | 0.0 | 0.00 | 0.28 | 0.00 | 32 | 999.6 |
| 20260507053042 | 77 | 282 | 0.0 | 0.0 | 0.00 | 0.28 | 0.00 | 45 | 999.3 |
| 20260507051537 | 77 | 333 | 0.0 | 0.0 | 0.00 | 0.28 | 0.00 | 46 | 999.0 |
| 20260507050036 | 77 | 349 | 0.0 | 0.0 | 0.00 | 0.28 | 0.00 | 46 | 999.1 |
| 20260507044544 | 77 | 14 | 0.0 | 0.0 | 0.00 | 0.28 | 0.00 | 47 | 998.9 |
| 20260507043039 | 77 | 349 | 0.0 | 0.0 | 0.00 | 0.28 | 0.00 | 47 | 999.0 |
| 20260507041532 | 77 | 12 | 0.0 | 0.0 | 0.00 | 0.28 | 0.00 | 47 | 998.7 |
| 20260507040029 | 77 | 7 | 0.0 | 0.0 | 0.00 | 0.28 | 0.00 | 50 | 998.9 |
| 20260507034524 | 78 | 334 | 0.0 | 0.0 | 0.00 | 0.28 | 0.00 | 52 | 999.5 |
| 20260507033024 | 78 | 342 | 0.0 | 0.0 | 0.00 | 0.28 | 0.00 | 53 | 999.9 |
| 20260507031520 | 78 | 9 | 0.0 | 0.0 | 0.00 | 0.28 | 0.00 | 53 | 999.9 |
| 20260507030018 | 78 | 40 | 0.0 | 0.0 | 0.00 | 0.28 | 0.28 | 54 | 999.8 |
| 20260507024514 | 78 | 348 | 0.0 | 0.0 | 0.00 | 0.28 | 0.28 | 52 | 999.9 |
| 20260507023009 | 77 | 44 | 0.0 | 0.0 | 0.00 | 0.28 | 0.28 | 47 | 1000.4 |
| 20260507021504 | 77 | 16 | 0.0 | 0.0 | 0.00 | 0.28 | 0.28 | 44 | 1000.4 |
| 20260507020107 | 77 | 325 | 0.0 | 0.0 | 0.00 | 0.28 | 0.28 | 39 | 1000.6 |
| 20260507014613 | 77 | 42 | 0.0 | 0.0 | 0.00 | 0.28 | 0.28 | 38 | 1000.8 |
| 20260507013056 | 77 | 350 | 0.0 | 0.0 | 0.00 | 0.28 | 0.28 | 36 | 1000.9 |
| 20260507011555 | 76 | 68 | 0.0 | 0.0 | 0.00 | 0.28 | 0.28 | 33 | 1000.5 |
| 20260507010107 | 77 | 339 | 0.0 | 0.0 | 0.00 | 0.28 | 0.28 | 33 | 1000.2 |
| 20260507004549 | 77 | 1 | 0.0 | 0.0 | 0.00 | 0.28 | 0.28 | 32 | 999.8 |
| 20260507003044 | 77 | 39 | 0.0 | 0.0 | 0.00 | 0.28 | 0.28 | 30 | 1000.2 |
| 20260507001538 | 77 | 13 | 0.0 | 0.0 | 0.00 | 0.28 | 0.28 | 32 | 1000.9 |
| 20260507000033 | 77 | 12 | 0.0 | 0.0 | 0.00 | 0.28 | 0.28 | 39 | 1001.4 |
| 20260506234529 | 77 | 46 | 0.0 | 0.0 | 0.00 | 0.28 | 0.28 | 41 | 1002.0 |
| 20260506233025 | 78 | 92 | 0.0 | 0.0 | 0.00 | 0.28 | 0.28 | 42 | 1002.2 |
| 20260506231520 | 78 | 11 | 0.0 | 0.0 | 0.00 | 0.28 | 0.28 | 42 | 1002.5 |
| 20260506230015 | 78 | 75 | 0.0 | 0.0 | 0.00 | 0.35 | 0.28 | 42 | 1002.6 |
| 20260506224512 | 78 | 39 | 0.0 | 0.0 | 0.00 | 0.35 | 0.28 | 43 | 1003.3 |
| 20260506223007 | 78 | 24 | 0.0 | 0.0 | 0.00 | 0.35 | 0.28 | 41 | 1003.6 |
| 20260506221501 | 78 | 39 | 0.0 | 0.0 | 0.00 | 0.35 | 0.28 | 43 | 1003.5 |
| 20260506220057 | 79 | 53 | 0.0 | 0.0 | 0.00 | 0.35 | 0.28 | 48 | 1003.4 |
| 20260506214553 | 79 | 34 | 0.0 | 0.0 | 0.00 | 0.35 | 0.28 | 52 | 1003.4 |
| 20260506213048 | 80 | 147 | 0.0 | 0.0 | 0.00 | 0.35 | 0.28 | 56 | 1003.5 |
| 20260506211543 | 80 | 58 | 0.0 | 0.0 | 0.00 | 0.35 | 0.28 | 60 | 1003.5 |
| 20260506210141 | 81 | 56 | 0.0 | 0.0 | 0.00 | 0.35 | 0.28 | 62 | 1003.4 |
| 20260506204534 | 82 | 30 | 0.0 | 0.0 | 0.00 | 0.35 | 0.28 | 62 | 1003.4 |
| 20260506203030 | 83 | 37 | 0.0 | 0.0 | 0.00 | 0.35 | 0.28 | 62 | 1003.5 |
| 20260506201540 | 84 | 37 | 0.0 | 0.0 | 0.00 | 0.35 | 0.28 | 62 | 1003.6 |
| 20260506200026 | 85 | 49 | 0.0 | 0.0 | 0.00 | 0.35 | 0.28 | 61 | 1003.6 |
| 20260506194516 | 85 | 285 | 0.0 | 0.0 | 0.00 | 0.35 | 0.28 | 60 | 1003.7 |
| 20260506193014 | 86 | 105 | 0.0 | 0.0 | 0.00 | 0.35 | 0.28 | 60 | 1003.9 |
| 20260506191510 | 86 | 347 | 0.0 | 0.0 | 0.00 | 0.35 | 0.28 | 59 | 1004.0 |
| 20260506190002 | 86 | 40 | 0.0 | 0.0 | 0.00 | 0.35 | 0.28 | 60 | 1004.2 |
| 20260506184602 | 86 | 22 | 0.0 | 0.0 | 0.00 | 0.35 | 0.28 | 60 | 1004.3 |
| 20260506183054 | 86 | 69 | 0.0 | 0.0 | 0.00 | 0.35 | 0.28 | 60 | 1004.5 |
| 20260506181549 | 86 | 39 | 0.0 | 0.0 | 0.00 | 0.35 | 0.28 | 60 | 1004.8 |
| 20260506180044 | 85 | 328 | 0.0 | 0.0 | 0.00 | 0.35 | 0.28 | 60 | 1005.0 |
| 20260506174540 | 85 | 53 | 0.0 | 0.0 | 0.00 | 0.35 | 0.28 | 60 | 1005.3 |
| 20260506173043 | 85 | 20 | 0.0 | 0.0 | 0.00 | 0.35 | 0.28 | 60 | 1005.6 |
| 20260506171542 | 85 | 311 | 0.0 | 0.0 | 0.00 | 0.35 | 0.28 | 60 | 1005.8 |
| 20260506170026 | 85 | 328 | 0.0 | 0.0 | 0.00 | 0.35 | 0.28 | 60 | 1006.0 |
| 20260506164524 | 85 | 321 | 0.0 | 0.0 | 0.00 | 0.35 | 0.28 | 60 | 1006.2 |
| 20260506163031 | 84 | 346 | 0.0 | 0.0 | 0.00 | 0.35 | 0.28 | 60 | 1006.4 |
| 20260506161513 | 84 | 15 | 0.0 | 0.0 | 0.00 | 0.35 | 0.28 | 60 | 1006.6 |
| 20260506160014 | 84 | 44 | 0.0 | 0.0 | 0.00 | 0.35 | 0.28 | 60 | 1007.0 |